CheckWX is a tool to help pilots better visualize weather data.  It is not intended as a substitute for an official pre-flight weather briefing.

22:44:40 UTC

KLAL TAF
Lakeland Linder Regional Airport
Lakeland, Florida, USA
KLAL 191724Z 1918/2018 18014G21KT P6SM VCSH SCT015 BKN040 FM200000 19010G15KT P6SM BKN050 BKN100 FM200300 20006KT P6SM BKN050 FM200900 20004KT P6SM SCT050 FM201500 25008KT P6SM SCT040

Oct-19@
18:00 UTC

Oct-19 @ 18:00 UTC

Oct-20@
00:00 UTC

Oct-20 @ 00:00 UTC

KLAL 191724Z 1918/2018 18014G21KT P6SM VCSH SCT015 BKN040
Wind
  • 180° at 14 KTS
  • {Gusting to 21 KTS
Cloud Levels
  • Scattered at 1,500' AGL
  • Broken at 4,000' AGL

Oct-20@
00:00 UTC

Oct-20 @ 00:00 UTC

Oct-20@
03:00 UTC

Oct-20 @ 03:00 UTC

FM200000 19010G15KT P6SM BKN050 BKN100

From

From Standard forecast or significant change

Wind
  • 190° at 10 KTS
  • {Gusting to 15 KTS
Cloud Levels
  • Broken at 5,000' AGL
  • Broken at 10,000' AGL

Oct-20@
03:00 UTC

Oct-20 @ 03:00 UTC

Oct-20@
09:00 UTC

Oct-20 @ 09:00 UTC

FM200300 20006KT P6SM BKN050

From

From Standard forecast or significant change

Wind
  • 200° at 6 KTS
Cloud Levels
  • Broken at 5,000' AGL

Oct-20@
09:00 UTC

Oct-20 @ 09:00 UTC

Oct-20@
15:00 UTC

Oct-20 @ 15:00 UTC

FM200900 20004KT P6SM SCT050

From

From Standard forecast or significant change

Wind
  • 200° at 4 KTS
Cloud Levels
  • Scattered at 5,000' AGL

Oct-20@
15:00 UTC

Oct-20 @ 15:00 UTC

Oct-20@
18:00 UTC

Oct-20 @ 18:00 UTC

FM201500 25008KT P6SM SCT040

From

From Standard forecast or significant change

Wind
  • 250° at 8 KTS
Cloud Levels
  • Scattered at 4,000' AGL